Time;durP1;ratioP1;P1;durP2;ratioP2;P2;SDS_P1;SDS_P2;PMS_P1;PMS_P2;Temp;Humidity;BMP_temperature;BMP_pressure;BME280_temperature;BME280_humidity;BME280_pressure;Samples;Min_cycle;Max_cycle;Signal;HPM_P1;HPM_P2
2020/12/01 00:00:39;;;;;;;2.97;1.10;;;6.90;79.70;;;;;;3501682;34;20154;-86
2020/12/01 00:03:05;;;;;;;9.90;2.10;;;6.90;79.70;;;;;;3501411;33;20131;-87
2020/12/01 00:05:32;;;;;;;9.73;1.53;;;6.90;79.70;;;;;;3493842;33;20637;-88
2020/12/01 00:07:58;;;;;;;2.90;1.37;;;6.90;79.70;;;;;;3491537;33;20533;-87
2020/12/01 00:10:25;;;;;;;9.60;1.53;;;7.00;79.70;;;;;;3496761;41;20217;-87
2020/12/01 00:12:51;;;;;;;2.83;0.93;;;7.00;79.70;;;;;;3496893;33;20581;-88
2020/12/01 00:15:20;;;;;;;4.00;1.60;;;7.00;79.70;;;;;;3501056;33;20488;-87
2020/12/01 00:17:47;;;;;;;3.97;1.43;;;7.00;79.70;;;;;;3488984;33;20280;-87
2020/12/01 00:20:15;;;;;;;5.13;1.20;;;7.00;79.80;;;;;;3495630;33;20541;-86
2020/12/01 00:22:41;;;;;;;2.03;0.83;;;7.00;79.80;;;;;;3502964;33;20170;-86
2020/12/01 00:25:08;;;;;;;4.23;1.40;;;7.00;80.60;;;;;;3502328;40;20153;-86
2020/12/01 00:27:34;;;;;;;1.03;0.53;;;7.00;79.90;;;;;;3489260;33;20177;-86
2020/12/01 00:30:04;;;;;;;1.27;0.40;;;7.10;79.90;;;;;;3502285;40;20205;-86
2020/12/01 00:32:31;;;;;;;7.97;1.33;;;7.10;79.90;;;;;;3504455;33;20153;-86
2020/12/01 00:34:57;;;;;;;2.70;1.20;;;7.10;79.90;;;;;;3492548;40;20137;-86
2020/12/01 00:37:23;;;;;;;7.73;1.80;;;7.10;80.00;;;;;;3484999;40;20209;-86
2020/12/01 00:39:50;;;;;;;2.70;1.30;;;7.10;80.10;;;;;;3493983;33;20181;-87
2020/12/01 00:42:16;;;;;;;3.00;1.37;;;7.10;80.10;;;;;;3486141;40;20279;-85
2020/12/01 00:44:42;;;;;;;3.20;0.77;;;7.10;80.10;;;;;;3495532;40;20465;-86
2020/12/01 00:47:09;;;;;;;1.70;0.77;;;7.00;80.10;;;;;;3493188;33;20249;-87
2020/12/01 00:49:35;;;;;;;1.90;0.87;;;7.10;80.30;;;;;;3494164;40;20153;-87
2020/12/01 00:52:02;;;;;;;8.23;1.17;;;7.10;80.30;;;;;;3502723;33;20158;-86
2020/12/01 00:54:28;;;;;;;1.87;0.60;;;7.10;80.30;;;;;;3503154;40;20564;-87
2020/12/01 00:56:57;;;;;;;4.80;0.73;;;7.10;80.30;;;;;;3503827;40;20153;-86
2020/12/01 00:59:24;;;;;;;0.47;0.35;;;7.10;80.30;;;;;;3504047;33;20133;-86
2020/12/01 01:01:50;;;;;;;3.63;1.80;;;7.20;80.40;;;;;;3502353;33;20122;-88
2020/12/01 01:04:17;;;;;;;1.35;0.90;;;7.10;80.30;;;;;;3490844;33;20548;-87
2020/12/01 01:06:50;;;;;;;3.22;1.52;;;7.20;80.40;;;;;;3499796;33;20169;-87
2020/12/01 01:09:17;;;;;;;3.03;1.63;;;7.20;80.40;;;;;;3501570;40;20194;-86
2020/12/01 01:11:44;;;;;;;5.67;2.40;;;7.20;80.40;;;;;;3497283;33;20173;-87
2020/12/01 01:14:10;;;;;;;8.07;0.80;;;7.20;80.40;;;;;;3501016;33;20170;-87
2020/12/01 01:16:41;;;;;;;3.13;1.05;;;7.20;80.40;;;;;;3495107;34;20162;-87
2020/12/01 01:19:08;;;;;;;3.78;1.42;;;7.30;80.50;;;;;;3494677;33;20121;-87
2020/12/01 01:21:42;;;;;;;1.80;0.83;;;7.30;80.50;;;;;;3502515;40;20113;-86
2020/12/01 01:24:09;;;;;;;3.00;1.03;;;7.30;80.50;;;;;;3506020;33;20588;-88
2020/12/01 01:26:35;;;;;;;1.30;0.57;;;7.30;80.50;;;;;;3494205;40;20126;-86
2020/12/01 01:29:02;;;;;;;2.90;0.80;;;7.30;80.50;;;;;;3503008;40;20138;-88
2020/12/01 01:31:29;;;;;;;3.43;0.87;;;7.30;80.50;;;;;;3506788;33;20560;-89
2020/12/01 01:33:55;;;;;;;4.05;1.77;;;7.30;80.50;;;;;;3493243;33;20141;-87
2020/12/01 01:36:21;;;;;;;7.63;1.45;;;7.30;80.50;;;;;;3503931;33;20561;-87
2020/12/01 01:38:48;;;;;;;1.13;0.47;;;7.40;80.60;;;;;;3492427;40;20402;-88
2020/12/01 01:41:14;;;;;;;4.88;1.88;;;7.40;80.60;;;;;;3494904;33;20133;-87
2020/12/01 01:43:40;;;;;;;1.92;1.38;;;7.40;80.60;;;;;;3491112;40;20656;-88
2020/12/01 01:46:28;;;;;;;5.03;1.40;;;7.40;80.60;;;;;;3498150;34;20609;-87
2020/12/01 01:48:55;;;;;;;3.60;1.33;;;7.40;80.60;;;;;;3510864;33;20302;-87
2020/12/01 01:51:21;;;;;;;0.85;0.40;;;7.40;80.60;;;;;;3496679;33;20174;-88
2020/12/01 01:53:48;;;;;;;2.85;1.30;;;7.40;80.60;;;;;;3492632;40;20150;-88
2020/12/01 01:56:17;;;;;;;9.90;1.20;;;7.50;80.60;;;;;;3501753;33;20410;-87
2020/12/01 01:58:43;;;;;;;3.33;1.42;;;7.50;80.60;;;;;;3495570;40;20141;-88
2020/12/01 02:01:15;;;;;;;4.28;1.25;;;7.50;80.60;;;;;;3504978;33;20613;-88
2020/12/01 02:03:50;;;;;;;2.40;1.10;;;7.50;80.60;;;;;;3499756;40;20138;-88
2020/12/01 02:06:24;;;;;;;1.67;0.77;;;7.50;80.60;;;;;;3503108;33;20125;-88
2020/12/01 02:08:58;;;;;;;5.25;0.98;;;7.50;80.60;;;;;;3503039;41;20134;-87
2020/12/01 02:11:24;;;;;;;2.40;0.85;;;7.60;80.70;;;;;;3489715;33;20141;-87
2020/12/01 02:14:16;;;;;;;3.15;1.35;;;7.60;80.70;;;;;;3492125;40;20178;-89
2020/12/01 02:16:45;;;;;;;1.58;0.73;;;7.60;80.70;;;;;;3498262;33;20383;-88
2020/12/01 02:19:15;;;;;;;1.30;0.63;;;7.60;80.60;;;;;;3494748;40;20268;-87
2020/12/01 02:21:41;;;;;;;2.25;0.93;;;7.60;80.70;;;;;;3491297;33;20166;-88
2020/12/01 02:24:15;;;;;;;1.33;0.70;;;7.60;80.70;;;;;;3494825;33;20526;-88
2020/12/01 02:26:46;;;;;;;8.75;2.00;;;7.70;80.70;;;;;;3497730;33;20095;-87
2020/12/01 02:29:14;;;;;;;3.22;1.10;;;7.70;80.70;;;;;;3511037;33;20101;-87
2020/12/01 02:31:40;;;;;;;8.07;0.50;;;7.70;80.70;;;;;;3505942;34;20096;-87
2020/12/01 02:34:09;;;;;;;2.60;0.52;;;7.70;80.70;;;;;;3499454;40;20389;-87
2020/12/01 02:36:35;;;;;;;3.22;1.42;;;7.70;80.70;;;;;;3500783;33;20316;-87
2020/12/01 02:39:02;;;;;;;8.23;1.67;;;7.70;80.70;;;;;;3486628;40;20145;-88
2020/12/01 02:41:29;;;;;;;12.18;2.15;;;7.70;80.70;;;;;;3481836;33;20149;-87
2020/12/01 02:43:55;;;;;;;4.45;0.93;;;7.80;80.70;;;;;;3493013;40;20197;-87
2020/12/01 02:46:21;;;;;;;3.15;1.00;;;7.80;80.70;;;;;;3502667;33;20149;-86
2020/12/01 02:48:48;;;;;;;3.33;1.00;;;7.80;80.70;;;;;;3495430;41;20147;-87
2020/12/01 02:51:15;;;;;;;5.93;0.50;;;7.80;80.70;;;;;;3494536;33;20177;-87
2020/12/01 02:53:41;;;;;;;2.50;1.17;;;7.90;80.70;;;;;;3499340;33;20153;-88
2020/12/01 02:56:08;;;;;;;2.95;1.05;;;7.90;80.70;;;;;;3488201;41;20142;-87
2020/12/01 02:58:34;;;;;;;1.70;0.73;;;7.90;80.80;;;;;;3494799;33;20138;-89
2020/12/01 03:01:00;;;;;;;6.78;0.90;;;7.90;80.70;;;;;;3509225;33;20145;-87
2020/12/01 03:03:29;;;;;;;2.15;0.75;;;7.90;80.70;;;;;;3488170;40;20146;-88
2020/12/01 03:05:55;;;;;;;7.22;1.27;;;7.90;80.70;;;;;;3502532;33;20149;-87
2020/12/01 03:08:22;;;;;;;1.67;0.75;;;8.00;80.70;;;;;;3489347;40;20133;-87
2020/12/01 03:10:48;;;;;;;3.55;1.13;;;8.00;80.70;;;;;;3488355;33;20146;-86
2020/12/01 03:13:14;;;;;;;1.88;1.05;;;8.00;80.60;;;;;;3497579;33;20142;-86
2020/12/01 03:15:42;;;;;;;2.80;0.77;;;8.10;80.80;;;;;;3486588;34;20170;-86
2020/12/01 03:18:08;;;;;;;3.97;0.85;;;8.10;80.80;;;;;;3498119;33;20142;-87
2020/12/01 03:20:35;;;;;;;3.17;1.15;;;8.10;80.70;;;;;;3494215;33;20133;-87
2020/12/01 03:23:01;;;;;;;4.95;1.38;;;8.10;80.70;;;;;;3498409;41;20166;-88
2020/12/01 03:25:27;;;;;;;3.22;1.05;;;8.10;80.70;;;;;;3479507;41;20142;-87
2020/12/01 03:27:54;;;;;;;1.08;0.52;;;8.10;80.70;;;;;;3497464;33;20489;-86
2020/12/01 03:30:20;;;;;;;6.18;0.73;;;8.20;80.70;;;;;;3499262;33;20323;-86
2020/12/01 03:32:46;;;;;;;4.10;0.95;;;8.20;80.70;;;;;;3499065;33;20146;-87
2020/12/01 03:35:13;;;;;;;2.95;0.93;;;8.20;80.70;;;;;;3509491;33;20133;-87
2020/12/01 03:37:39;;;;;;;7.00;1.13;;;8.20;80.70;;;;;;3522542;33;20101;-85
2020/12/01 03:40:05;;;;;;;2.45;1.13;;;8.30;80.80;;;;;;3516344;40;20126;-87
2020/12/01 03:42:32;;;;;;;1.65;0.82;;;8.30;80.80;;;;;;3494881;40;20145;-88
2020/12/01 03:44:58;;;;;;;2.38;0.80;;;8.30;80.80;;;;;;3498831;40;20141;-86
2020/12/01 03:47:25;;;;;;;1.77;1.08;;;8.30;80.80;;;;;;3490385;33;20547;-87
2020/12/01 03:49:51;;;;;;;3.03;0.77;;;8.40;80.90;;;;;;3499186;33;20162;-87
2020/12/01 03:52:17;;;;;;;1.95;0.63;;;8.30;80.80;;;;;;3486945;41;20138;-87
2020/12/01 03:54:44;;;;;;;2.45;0.63;;;8.40;80.90;;;;;;3491279;40;20585;-86
2020/12/01 03:57:11;;;;;;;0.45;0.30;;;8.40;80.90;;;;;;3494023;33;20145;-88
2020/12/01 03:59:38;;;;;;;3.83;1.05;;;8.40;80.90;;;;;;3485906;33;20494;-88
2020/12/01 04:02:04;;;;;;;0.63;0.43;;;8.40;80.90;;;;;;3501748;33;20149;-87
2020/12/01 04:04:30;;;;;;;3.33;1.27;;;8.40;80.90;;;;;;3501556;33;20477;-88
2020/12/01 04:06:57;;;;;;;4.25;1.52;;;8.40;80.90;;;;;;3490969;41;20121;-86
2020/12/01 04:09:24;;;;;;;2.42;1.10;;;8.40;80.90;;;;;;3483512;33;20145;-88
2020/12/01 04:11:51;;;;;;;4.75;1.27;;;8.40;81.00;;;;;;3486803;41;20158;-87
2020/12/01 04:14:17;;;;;;;1.90;0.63;;;8.50;81.10;;;;;;3494792;33;20566;-87
2020/12/01 04:16:44;;;;;;;1.38;0.55;;;8.50;81.10;;;;;;3498042;33;20166;-87
2020/12/01 04:19:10;;;;;;;5.63;1.58;;;8.50;81.20;;;;;;3491572;41;20696;-87
2020/12/01 04:21:36;;;;;;;1.48;0.77;;;8.50;81.20;;;;;;3494680;41;20150;-88
2020/12/01 04:24:03;;;;;;;3.38;0.47;;;8.40;81.20;;;;;;3489961;41;20141;-87
2020/12/01 04:26:29;;;;;;;0.98;0.47;;;8.40;81.30;;;;;;3494282;33;20138;-86
2020/12/01 04:28:55;;;;;;;6.78;1.63;;;8.50;81.50;;;;;;3500895;33;20577;-86
2020/12/01 04:31:22;;;;;;;0.75;0.30;;;8.40;81.50;;;;;;3508759;33;20419;-87
2020/12/01 04:33:49;;;;;;;3.58;0.70;;;8.40;81.50;;;;;;3501382;33;20134;-87
2020/12/01 04:36:15;;;;;;;5.75;1.15;;;8.40;81.60;;;;;;3490824;41;20146;-86
2020/12/01 04:38:41;;;;;;;3.15;1.35;;;8.40;81.60;;;;;;3492999;33;20210;-87
2020/12/01 04:41:10;;;;;;;2.53;0.55;;;8.40;81.70;;;;;;3500385;41;20146;-85
2020/12/01 04:43:47;;;;;;;2.25;1.33;;;8.40;81.70;;;;;;3491729;33;20695;-86
2020/12/01 04:46:19;;;;;;;0.88;0.43;;;8.40;81.80;;;;;;3501826;33;20145;-86
2020/12/01 04:48:48;;;;;;;0.95;0.35;;;8.40;81.80;;;;;;3492672;41;20145;-86
2020/12/01 04:51:45;;;;;;;2.65;1.13;;;8.40;81.80;;;;;;3492716;33;20154;-87
2020/12/01 04:54:33;;;;;;;0.60;0.38;;;8.40;81.80;;;;;;3505010;33;20146;-89
2020/12/01 04:57:18;;;;;;;1.65;0.55;;;8.40;81.80;;;;;;3501118;41;20110;-89
2020/12/01 05:00:07;;;;;;;1.08;0.50;;;8.50;81.90;;;;;;3506791;41;20395;-87
2020/12/01 05:02:56;;;;;;;6.43;0.80;;;8.50;81.80;;;;;;3493907;33;20208;-88
2020/12/01 05:05:37;;;;;;;4.22;1.13;;;8.50;81.80;;;;;;3493906;40;20116;-87
2020/12/01 05:08:11;;;;;;;;;;;8.50;81.80;;;;;;3515711;33;20510;-87
2020/12/01 05:10:37;;;;;;;0.70;0.43;;;8.50;81.80;;;;;;3504700;41;20016;-87
2020/12/01 05:13:22;;;;;;;1.20;0.52;;;8.50;81.70;;;;;;3494029;33;20141;-89
2020/12/01 05:15:51;;;;;;;3.08;1.17;;;8.50;81.80;;;;;;3516040;33;20093;-88
2020/12/01 05:18:19;;;;;;;2.53;0.43;;;8.60;81.90;;;;;;3515765;33;20101;-87
2020/12/01 05:20:49;;;;;;;1.58;1.08;;;8.60;81.90;;;;;;3512018;33;20102;-87
2020/12/01 05:23:16;;;;;;;0.75;0.35;;;8.60;81.90;;;;;;3497536;41;20145;-87
2020/12/01 05:25:43;;;;;;;1.35;0.70;;;8.60;81.90;;;;;;3491340;40;20158;-87
2020/12/01 05:28:14;;;;;;;0.20;0.10;;;8.60;81.90;;;;;;3493101;33;20137;-87
2020/12/01 05:30:42;;;;;;;1.45;0.30;;;8.70;81.90;;;;;;3506020;33;20169;-87
2020/12/01 05:33:31;;;;;;;0.30;0.20;;;8.70;81.90;;;;;;3497730;33;20212;-88
2020/12/01 05:36:19;;;;;;;2.90;0.68;;;8.70;81.90;;;;;;3531193;33;20474;-89
2020/12/01 05:38:59;;;;;;;2.58;1.15;;;8.70;81.80;;;;;;3493387;33;20134;-88
2020/12/01 05:41:31;;;;;;;0.22;0.20;;;8.80;81.80;;;;;;3501035;40;20153;-89
2020/12/01 05:44:00;;;;;;;1.77;0.60;;;8.80;81.80;;;;;;3491559;33;20129;-88
2020/12/01 05:46:57;;;;;;;2.35;0.85;;;8.90;81.90;;;;;;3492826;33;20515;-87
2020/12/01 05:49:43;;;;;;;5.90;0.93;;;8.90;81.90;;;;;;3491588;33;20130;-89
2020/12/01 05:52:47;;;;;;;1.13;0.22;;;8.90;81.90;;;;;;3506779;40;20138;-88
2020/12/01 05:55:21;;;;;;;0.47;0.30;;;8.90;81.90;;;;;;3492735;41;20126;-89
2020/12/01 05:58:04;;;;;;;2.05;0.38;;;8.90;81.90;;;;;;3494820;40;20153;-89
2020/12/01 06:00:35;;;;;;;0.17;0.00;;;8.90;81.90;;;;;;3499091;34;20120;-89
2020/12/01 06:03:31;;;;;;;0.95;0.40;;;8.90;81.90;;;;;;3502435;33;20342;-90
2020/12/01 06:05:58;;;;;;;0.43;0.10;;;9.00;82.10;;;;;;3512371;40;20121;-88
2020/12/01 06:08:36;;;;;;;0.00;0.00;;;9.00;82.20;;;;;;3503163;40;20125;-90
2020/12/01 06:11:30;;;;;;;2.33;0.22;;;8.90;82.20;;;;;;3509051;40;20171;-90
2020/12/01 06:14:13;;;;;;;2.72;0.75;;;8.90;82.20;;;;;;3611795;33;20138;-89
2020/12/01 06:20:09;;;;;;;0.85;0.13;;;9.00;82.30;;;;;;3502700;40;20227;-89
2020/12/01 06:23:40;;;;;;;;;;;;;;;;;;;;;
2020/12/01 06:26:46;;;;;;;0.57;0.30;;;9.00;82.20;;;;;;3524261;33;20109;-88
2020/12/01 06:30:09;;;;;;;;;;;;;;;;;;;;;
2020/12/01 06:32:58;;;;;;;0.70;0.30;;;9.10;82.20;;;;;;3486682;33;20124;-91
2020/12/01 06:36:02;;;;;;;0.90;0.20;;;9.10;82.10;;;;;;3513237;33;20117;-90
2020/12/01 06:39:04;;;;;;;2.30;0.38;;;9.10;82.10;;;;;;3524667;33;20136;-89
2020/12/01 06:42:05;;;;;;;0.40;0.20;;;9.10;82.20;;;;;;3506363;40;20110;-89
2020/12/01 06:45:20;;;;;;;2.33;0.43;;;9.10;82.20;;;;;;3502380;41;20125;-89
2020/12/01 06:50:53;;;;;;;0.65;0.30;;;9.10;82.50;;;;;;3626173;27;20142;-91
2020/12/01 06:56:20;;;;;;;1.17;0.10;;;9.00;82.70;;;;;;3591449;35;20113;-89
2020/12/01 06:58:50;;;;;;;7.55;0.63;;;9.00;82.70;;;;;;3486565;33;20114;-89
2020/12/01 07:01:28;;;;;;;0.30;0.20;;;9.10;82.80;;;;;;3474877;34;20105;-90
2020/12/01 07:04:13;;;;;;;1.80;0.50;;;9.00;82.80;;;;;;3470721;33;20125;-89
2020/12/01 07:06:50;;;;;;;4.28;0.30;;;9.00;82.90;;;;;;3489496;33;20135;-86
2020/12/01 07:09:17;;;;;;;0.52;0.17;;;9.00;82.90;;;;;;3469272;33;20142;-87
2020/12/01 07:12:04;;;;;;;12.27;1.35;;;9.00;83.00;;;;;;3470348;41;20155;-88
2020/12/01 07:14:36;;;;;;;12.18;0.20;;;9.00;83.10;;;;;;3475396;41;20138;-88
2020/12/01 07:17:22;;;;;;;1.95;0.40;;;9.00;83.10;;;;;;3488570;33;20119;-88
2020/12/01 07:20:12;;;;;;;0.95;0.25;;;9.00;83.10;;;;;;3481314;41;20127;-90
2020/12/01 07:22:55;;;;;;;2.23;0.43;;;9.10;83.10;;;;;;3477089;33;20170;-87
2020/12/01 07:25:21;;;;;;;1.00;0.35;;;9.00;83.10;;;;;;3476941;41;20713;-87
2020/12/01 07:28:21;;;;;;;1.08;0.40;;;9.00;83.20;;;;;;3485839;33;20160;-87
2020/12/01 07:30:55;;;;;;;0.65;0.40;;;9.00;83.30;;;;;;3470611;33;20134;-88
2020/12/01 07:33:33;;;;;;;9.02;0.55;;;9.00;83.30;;;;;;3469512;33;20132;-88
2020/12/01 07:36:21;;;;;;;0.20;0.03;;;9.00;83.40;;;;;;3463210;33;20142;-89
2020/12/01 07:38:48;;;;;;;2.20;0.28;;;9.00;83.40;;;;;;3478904;33;20142;-88
2020/12/01 07:41:25;;;;;;;0.03;0.00;;;9.00;83.40;;;;;;3475229;41;20114;-90
2020/12/01 07:44:29;;;;;;;;;;;;;;;;;;;;;
2020/12/01 07:56:01;;;;;;;0.22;0.00;;;8.90;83.60;;;;;;3975606;28;20143;31
2020/12/01 08:21:56;;;;;;;0.00;0.00;;;9.10;83.70;;;;;;3951825;35;20117;31
2020/12/01 08:45:52;;;;;;;0.35;0.35;;;9.00;83.10;;;;;;3567121;27;20134;-92
2020/12/01 08:48:38;;;;;;;0.13;0.10;;;8.90;83.20;;;;;;3511043;33;20170;-90
2020/12/01 08:54:31;;;;;;;1.15;0.20;;;8.90;83.10;;;;;;3573400;28;20240;-93
2020/12/01 09:00:05;;;;;;;0.00;0.00;;;8.90;82.90;;;;;;3548988;28;20132;-90
2020/12/01 15:00:09;;;;;;;0.00;0.00;;;10.10;73.40;;;;;;3724016;28;20151;31
2020/12/01 15:34:35;;;;;;;0.00;0.00;;;9.90;74.30;;;;;;3722964;31;20120;-90
2020/12/01 16:53:16;;;;;;;189.38;11.55;;;9.00;75.50;;;;;;3766089;28;20129;-89
2020/12/01 16:55:57;;;;;;;0.30;0.20;;;9.00;75.70;;;;;;3491103;41;20083;-87
2020/12/01 16:58:58;;;;;;;0.10;0.00;;;9.00;75.70;;;;;;3515782;33;20086;-89
2020/12/01 17:01:46;;;;;;;0.10;0.00;;;8.90;75.80;;;;;;3478787;34;20121;-90
2020/12/01 17:05:32;;;;;;;0.00;0.00;;;9.00;75.90;;;;;;3506001;33;20141;-89
2020/12/01 17:07:51;;;;;;;7.57;0.40;;;8.90;75.80;;;;;;3515404;33;20141;-89
2020/12/01 17:13:23;;;;;;;0.80;0.20;;;8.90;75.90;;;;;;3507031;27;20130;-89
2020/12/01 17:16:27;;;;;;;2.83;1.00;;;8.90;75.90;;;;;;3499053;33;20126;-92
2020/12/01 17:22:25;;;;;;;0.00;0.00;;;8.80;76.00;;;;;;3505142;41;20107;-89
2020/12/01 17:24:52;;;;;;;2.58;0.03;;;8.80;76.00;;;;;;3504451;33;20089;-90
2020/12/01 17:27:33;;;;;;;0.80;0.20;;;8.80;76.10;;;;;;3488193;33;20125;-88
2020/12/01 17:30:18;;;;;;;0.00;0.00;;;8.80;76.20;;;;;;3481070;41;20075;-89
2020/12/01 17:33:46;;;;;;;1.50;1.40;;;8.80;76.30;;;;;;3487427;33;20125;-89
2020/12/01 17:36:44;;;;;;;4.53;0.40;;;8.70;76.30;;;;;;3449327;41;20144;-89
2020/12/01 17:39:43;;;;;;;0.80;0.40;;;8.70;76.30;;;;;;3440630;41;20235;-89
2020/12/01 17:42:50;;;;;;;0.00;0.00;;;8.60;76.40;;;;;;3516875;33;20109;-92
2020/12/01 20:14:18;;;;;;;1.77;0.82;;;7.10;79.20;;;;;;3504394;33;20174;-89
2020/12/01 20:17:41;;;;;;;4.75;1.02;;;7.00;79.30;;;;;;3483792;34;20129;-88
2020/12/01 20:20:10;;;;;;;2.92;0.82;;;7.00;79.30;;;;;;3476846;33;20619;-88
2020/12/01 20:23:04;;;;;;;0.90;0.65;;;6.90;79.40;;;;;;3470957;33;20124;-87
2020/12/01 20:31:46;;;;;;;;;;;6.80;79.60;;;;;;3481009;33;20121;-88
2020/12/01 20:40:54;;;;;;;1.40;0.90;;;6.70;79.60;;;;;;3457167;41;20605;-87
2020/12/01 20:43:23;;;;;;;1.10;0.20;;;6.70;79.60;;;;;;3460261;41;20215;-88
2020/12/01 20:53:09;;;;;;;0.22;0.20;;;6.70;79.70;;;;;;3489149;33;20162;-92
2020/12/01 20:56:21;;;;;;;0.93;0.22;;;6.60;79.70;;;;;;3496919;41;20146;-87
2020/12/01 20:58:50;;;;;;;1.55;0.40;;;6.60;79.70;;;;;;3477923;41;20131;-89
2020/12/01 21:02:02;;;;;;;0.60;0.60;;;6.60;79.80;;;;;;3494301;34;20581;-92
2020/12/01 21:04:36;;;;;;;0.07;0.07;;;6.60;79.80;;;;;;3475963;34;20475;-88
2020/12/01 21:07:36;;;;;;;0.73;0.30;;;6.60;79.70;;;;;;3501900;40;20143;-90
2020/12/01 21:10:59;;;;;;;;;;;;;;;;;;;;;
2020/12/01 21:17:57;;;;;;;0.73;0.53;;;6.60;79.70;;;;;;3523120;35;20126;-90
2020/12/01 21:21:47;;;;;;;0.20;0.10;;;6.50;79.70;;;;;;3493811;41;20110;-92
2020/12/01 21:24:54;;;;;;;;;;;;;;;;;;;;;
2020/12/01 21:31:24;;;;;;;0.40;0.13;;;6.50;79.90;;;;;;3482729;33;20111;-89
2020/12/01 21:34:26;;;;;;;0.00;0.00;;;6.50;80.00;;;;;;3472859;41;20146;-90
2020/12/01 21:37:18;;;;;;;0.00;0.00;;;6.50;80.00;;;;;;3498991;33;20151;-90
2020/12/01 21:48:49;;;;;;;0.20;0.10;;;6.40;80.20;;;;;;3505369;33;20177;-88
2020/12/01 21:51:28;;;;;;;0.10;0.00;;;6.40;80.30;;;;;;3489474;33;20133;-89
2020/12/01 21:54:31;;;;;;;0.73;0.10;;;6.30;80.30;;;;;;3505677;40;20557;-88
2020/12/01 21:57:07;;;;;;;0.00;0.00;;;6.30;80.40;;;;;;3508860;40;20398;-86
2020/12/01 21:59:54;;;;;;;0.00;0.00;;;6.20;80.40;;;;;;3504780;33;20142;-86
2020/12/01 22:02:32;;;;;;;0.67;0.20;;;6.20;80.50;;;;;;3509784;33;20364;-90
2020/12/01 22:05:40;;;;;;;0.33;0.20;;;6.20;80.50;;;;;;3511368;40;20569;-90
2020/12/01 22:09:08;;;;;;;0.23;0.10;;;6.20;80.50;;;;;;3507757;40;20627;-86
2020/12/01 22:12:12;;;;;;;1.77;0.80;;;6.20;80.60;;;;;;3512652;33;20134;-87
2020/12/01 22:14:48;;;;;;;0.10;0.00;;;6.10;80.60;;;;;;3511567;40;20242;-85
2020/12/01 22:17:32;;;;;;;7.43;0.60;;;6.10;80.70;;;;;;3495802;33;20161;-86
2020/12/01 22:20:10;;;;;;;2.33;0.63;;;6.10;80.70;;;;;;3504454;40;20403;-88
2020/12/01 22:23:06;;;;;;;1.43;0.40;;;6.10;80.80;;;;;;3514067;40;20126;-89
2020/12/01 22:25:43;;;;;;;0.07;0.00;;;6.00;80.80;;;;;;3508444;40;20487;-86
2020/12/01 22:28:33;;;;;;;1.70;0.70;;;6.00;80.90;;;;;;3502121;40;20196;-89
2020/12/01 22:31:35;;;;;;;0.20;0.10;;;6.00;81.00;;;;;;3507682;33;20647;-88
2020/12/01 22:34:48;;;;;;;0.00;0.00;;;6.00;81.00;;;;;;3480269;40;20130;-86
2020/12/01 22:37:32;;;;;;;0.30;0.07;;;5.90;80.90;;;;;;3502910;33;20117;-89
2020/12/01 22:40:09;;;;;;;0.00;0.00;;;5.90;80.90;;;;;;3494359;40;20482;-86
2020/12/01 22:43:30;;;;;;;0.23;0.00;;;5.90;80.80;;;;;;3487127;41;20122;-88
2020/12/01 22:47:02;;;;;;;1.23;0.05;;;5.90;80.80;;;;;;3475536;41;20142;-87
2020/12/01 22:50:06;;;;;;;0.03;0.00;;;5.90;80.90;;;;;;3487845;41;20234;-88
2020/12/01 22:52:48;;;;;;;0.00;0.00;;;5.90;80.80;;;;;;3477640;33;20147;-87
2020/12/01 22:55:14;;;;;;;0.33;0.10;;;5.90;80.80;;;;;;3478012;33;20091;-88
2020/12/01 22:57:51;;;;;;;0.53;0.07;;;5.90;80.80;;;;;;3487076;41;20134;-87
2020/12/01 23:00:31;;;;;;;6.70;0.27;;;5.90;80.80;;;;;;3476046;34;20103;-89
2020/12/01 23:02:59;;;;;;;0.00;0.00;;;5.90;80.80;;;;;;3477402;34;20106;-88
2020/12/01 23:05:26;;;;;;;0.63;0.20;;;5.90;80.80;;;;;;3488231;33;20107;-88
2020/12/01 23:08:02;;;;;;;1.80;0.80;;;5.90;80.90;;;;;;3476852;33;20305;-86
2020/12/01 23:10:34;;;;;;;0.00;0.00;;;5.90;80.90;;;;;;3459925;41;20123;-87
2020/12/01 23:13:18;;;;;;;0.00;0.00;;;5.90;81.00;;;;;;3469841;41;20584;-90
2020/12/01 23:15:45;;;;;;;1.50;0.37;;;5.90;81.00;;;;;;3482626;33;20147;-87
2020/12/01 23:18:12;;;;;;;0.00;0.00;;;5.80;80.90;;;;;;3461327;41;20646;-86
2020/12/01 23:20:40;;;;;;;0.20;0.10;;;5.80;80.90;;;;;;3472480;41;20729;-88
2020/12/01 23:23:09;;;;;;;0.00;0.00;;;5.80;81.00;;;;;;3474846;40;20141;-87
2020/12/01 23:25:35;;;;;;;0.20;0.00;;;5.80;81.00;;;;;;3502081;33;20572;-88
2020/12/01 23:28:06;;;;;;;0.00;0.00;;;5.80;81.10;;;;;;3499747;40;20520;-89
2020/12/01 23:30:38;;;;;;;0.40;0.10;;;5.80;81.10;;;;;;3495057;33;20146;-87
2020/12/01 23:33:12;;;;;;;0.20;0.20;;;5.80;81.10;;;;;;3496304;33;20149;-86
2020/12/01 23:35:38;;;;;;;0.00;0.00;;;5.80;81.20;;;;;;3500449;33;20154;-90
2020/12/01 23:38:06;;;;;;;0.43;0.30;;;5.70;81.10;;;;;;3495856;33;20521;-90
2020/12/01 23:40:32;;;;;;;0.20;0.20;;;5.70;81.10;;;;;;3495724;33;20546;-89
2020/12/01 23:43:34;;;;;;;0.00;0.00;;;5.70;81.10;;;;;;3505603;33;20142;-87
2020/12/01 23:46:13;;;;;;;0.00;0.00;;;5.70;81.10;;;;;;3500813;34;20160;-86
2020/12/01 23:48:40;;;;;;;0.07;0.00;;;5.70;81.20;;;;;;3502407;40;20340;-87
2020/12/01 23:51:09;;;;;;;0.00;0.00;;;5.70;81.10;;;;;;3495582;33;20130;-88
2020/12/01 23:53:36;;;;;;;0.07;0.00;;;5.70;81.10;;;;;;3494297;33;20134;-88
2020/12/01 23:56:04;;;;;;;0.97;0.07;;;5.70;81.10;;;;;;3500340;33;20216;-88
2020/12/01 23:58:31;;;;;;;0.60;0.13;;;5.70;81.00;;;;;;3494620;40;20134;-89
